createdAt,value
2022-09-18T00:00:37.137Z,2.88
2022-09-18T00:02:08.416Z,2.80
2022-09-18T00:03:39.971Z,3.16
2022-09-18T00:05:11.550Z,3.25
2022-09-18T00:06:43.290Z,3.16
2022-09-18T00:08:14.602Z,3.37
2022-09-18T00:09:45.921Z,3.31
2022-09-18T00:11:17.366Z,3.80
2022-09-18T00:12:48.819Z,3.40
2022-09-18T00:14:20.065Z,3.53
2022-09-18T00:15:51.405Z,3.66
2022-09-18T00:17:22.826Z,3.74
2022-09-18T00:18:54.152Z,3.96
2022-09-18T00:20:25.607Z,3.69
2022-09-18T00:21:57.188Z,3.68
2022-09-18T00:23:28.538Z,3.97
2022-09-18T00:24:59.843Z,4.13
2022-09-18T00:26:32.041Z,4.05
2022-09-18T00:28:03.390Z,3.86
2022-09-18T00:29:34.726Z,3.79
2022-09-18T00:31:06.360Z,3.89
2022-09-18T00:32:37.847Z,3.88
2022-09-18T00:34:14.351Z,3.65
2022-09-18T00:35:45.681Z,4.13
2022-09-18T00:37:17.443Z,4.06
2022-09-18T00:38:49.043Z,4.11
2022-09-18T00:40:20.435Z,3.83
2022-09-18T00:41:52.056Z,3.67
2022-09-18T00:43:23.419Z,3.95
2022-09-18T00:44:54.773Z,3.57
2022-09-18T00:46:26.206Z,3.39
2022-09-18T00:47:57.662Z,3.45
2022-09-18T00:49:29.197Z,3.69
2022-09-18T00:51:00.552Z,3.33
2022-09-18T00:52:32.165Z,4.01
2022-09-18T00:54:03.375Z,4.17
2022-09-18T00:55:36.400Z,4.60
2022-09-18T00:57:07.697Z,4.03
2022-09-18T00:58:38.944Z,3.52
2022-09-18T01:00:10.778Z,3.89
2022-09-18T01:01:42.115Z,4.19
2022-09-18T01:03:13.555Z,3.76
2022-09-18T01:04:44.760Z,4.21
2022-09-18T01:06:16.277Z,3.77
2022-09-18T01:07:47.689Z,3.64
2022-09-18T01:09:28.355Z,3.97
2022-09-18T01:11:00.211Z,3.86
2022-09-18T01:12:31.727Z,3.82
2022-09-18T01:14:03.045Z,3.80
2022-09-18T01:15:34.430Z,3.97
2022-09-18T01:17:05.906Z,3.93
2022-09-18T01:18:37.151Z,4.04
2022-09-18T01:20:08.443Z,4.07
2022-09-18T01:21:39.684Z,4.06
2022-09-18T01:23:11.095Z,3.98
2022-09-18T01:24:42.357Z,4.05
2022-09-18T01:26:13.656Z,4.12
2022-09-18T01:27:44.950Z,4.38
2022-09-18T01:29:16.285Z,4.69
2022-09-18T01:30:47.615Z,4.62
2022-09-18T01:32:18.963Z,5.08
2022-09-18T01:33:50.280Z,4.81
2022-09-18T01:35:39.559Z,4.72
2022-09-18T01:37:12.258Z,4.85
2022-09-18T01:38:43.709Z,5.08
2022-09-18T01:40:15.222Z,5.58
2022-09-18T01:41:46.724Z,4.91
2022-09-18T01:43:18.118Z,5.30
2022-09-18T01:44:49.386Z,5.06
2022-09-18T01:46:21.031Z,5.69
2022-09-18T01:47:52.589Z,5.33
2022-09-18T01:49:23.832Z,5.14
2022-09-18T01:50:55.253Z,5.20
2022-09-18T01:52:26.569Z,5.62
2022-09-18T01:53:58.303Z,5.54
2022-09-18T01:55:29.793Z,5.28
2022-09-18T01:57:01.001Z,4.93
2022-09-18T01:58:32.371Z,4.95
2022-09-18T02:00:03.819Z,4.76
2022-09-18T02:01:35.209Z,4.67
2022-09-18T02:03:07.018Z,4.43
2022-09-18T02:04:38.538Z,4.74
2022-09-18T02:06:09.870Z,4.83
2022-09-18T02:07:41.313Z,4.76
2022-09-18T02:09:12.897Z,4.35
2022-09-18T02:10:44.216Z,4.52
2022-09-18T02:12:15.558Z,4.85
2022-09-18T02:13:46.778Z,4.80
2022-09-18T02:15:18.517Z,4.57
2022-09-18T02:16:49.819Z,4.84
2022-09-18T02:18:21.348Z,4.88
2022-09-18T02:19:52.778Z,4.95
2022-09-18T02:21:24.071Z,5.14
2022-09-18T02:22:55.392Z,4.90
2022-09-18T02:24:26.822Z,4.90
2022-09-18T02:25:58.412Z,5.67
2022-09-18T02:27:29.711Z,5.88
2022-09-18T02:29:01.197Z,6.08
2022-09-18T02:30:32.578Z,6.17
2022-09-18T02:32:03.769Z,5.85
2022-09-18T02:33:35.341Z,5.93
2022-09-18T02:35:06.893Z,6.42
2022-09-18T02:36:38.141Z,6.32
2022-09-18T02:38:09.653Z,6.39
2022-09-18T02:39:41.034Z,6.46
2022-09-18T02:41:12.486Z,6.32
2022-09-18T02:42:43.958Z,6.63
2022-09-18T02:44:15.170Z,6.54
2022-09-18T02:45:46.521Z,6.53
2022-09-18T02:47:17.814Z,6.49
2022-09-18T02:48:49.193Z,6.19
2022-09-18T02:50:20.821Z,6.74
2022-09-18T02:51:52.269Z,6.31
2022-09-18T02:53:23.603Z,6.30
2022-09-18T02:54:55.077Z,5.77
2022-09-18T02:56:26.269Z,5.59
2022-09-18T02:57:57.485Z,6.23
2022-09-18T02:59:28.895Z,6.54
2022-09-18T03:01:00.351Z,6.04
2022-09-18T03:02:31.796Z,5.88
2022-09-18T03:04:03.303Z,6.38
2022-09-18T03:05:34.898Z,6.55
2022-09-18T03:07:06.210Z,6.04
2022-09-18T03:08:37.687Z,6.65
2022-09-18T03:10:10.047Z,6.71
2022-09-18T03:11:41.396Z,6.77
2022-09-18T03:13:12.722Z,6.65
2022-09-18T03:14:45.232Z,6.97
2022-09-18T03:16:16.580Z,7.20
2022-09-18T03:17:47.913Z,6.93
2022-09-18T03:19:19.373Z,7.27
2022-09-18T03:20:51.148Z,7.58
2022-09-18T03:22:22.570Z,8.16
2022-09-18T03:23:58.995Z,7.93
2022-09-18T03:25:30.474Z,7.88
2022-09-18T03:27:01.853Z,8.13
2022-09-18T03:28:33.094Z,8.60
2022-09-18T03:30:04.438Z,8.31
2022-09-18T03:31:36.135Z,8.79
2022-09-18T03:33:07.750Z,8.72
2022-09-18T03:34:39.135Z,8.84
2022-09-18T03:36:10.615Z,9.17
2022-09-18T03:37:42.506Z,9.35
2022-09-18T03:39:16.153Z,9.22
2022-09-18T03:40:48.195Z,10.29
2022-09-18T03:42:19.774Z,9.81
2022-09-18T03:43:51.152Z,9.51
2022-09-18T03:45:22.702Z,9.58
2022-09-18T03:46:54.169Z,9.38
2022-09-18T03:48:25.710Z,9.38
2022-09-18T03:49:56.966Z,9.77
2022-09-18T03:51:28.332Z,9.81
2022-09-18T03:52:59.819Z,9.84
2022-09-18T03:54:31.126Z,9.88
2022-09-18T03:56:02.562Z,10.13
2022-09-18T03:57:34.449Z,10.12
2022-09-18T03:59:05.845Z,11.27
2022-09-18T04:00:37.407Z,11.03
2022-09-18T04:02:08.720Z,11.37
2022-09-18T04:03:40.118Z,11.81
2022-09-18T04:05:11.307Z,12.14
2022-09-18T04:06:42.771Z,11.90
2022-09-18T04:08:14.045Z,11.66
2022-09-18T04:09:45.458Z,11.56
2022-09-18T04:11:16.833Z,11.63
2022-09-18T04:12:48.518Z,11.68
2022-09-18T04:14:20.131Z,11.59
2022-09-18T04:15:51.529Z,11.50
2022-09-18T04:17:23.037Z,11.45
2022-09-18T04:18:54.478Z,11.94
2022-09-18T04:20:25.880Z,11.40
2022-09-18T04:21:57.483Z,11.64
2022-09-18T04:23:28.763Z,11.19
2022-09-18T04:25:00.081Z,11.19
2022-09-18T04:26:31.677Z,11.38
2022-09-18T04:28:03.067Z,11.32
2022-09-18T04:29:34.649Z,10.34
2022-09-18T04:31:06.097Z,10.73
2022-09-18T04:32:37.641Z,10.72
2022-09-18T04:34:08.971Z,11.19
2022-09-18T04:35:40.193Z,11.11
2022-09-18T04:37:11.521Z,10.68
2022-09-18T04:39:22.348Z,10.94
2022-09-18T04:41:15.010Z,10.22
2022-09-18T04:42:46.720Z,10.23
2022-09-18T04:44:18.168Z,10.11
2022-09-18T04:45:49.459Z,10.69
2022-09-18T04:47:20.831Z,10.64
2022-09-18T04:48:52.430Z,10.58
2022-09-18T04:50:23.942Z,10.54
2022-09-18T04:51:55.420Z,10.59
2022-09-18T04:53:27.019Z,10.69
2022-09-18T04:54:58.573Z,10.64
2022-09-18T04:56:29.993Z,9.92
2022-09-18T04:58:01.537Z,10.65
2022-09-18T04:59:32.900Z,9.86
2022-09-18T05:01:04.227Z,9.42
2022-09-18T05:02:35.728Z,9.79
2022-09-18T05:04:07.191Z,9.72
2022-09-18T05:05:38.645Z,9.75
2022-09-18T05:07:09.954Z,10.34
2022-09-18T05:08:41.178Z,10.34
2022-09-18T05:10:12.507Z,9.31
2022-09-18T05:11:43.987Z,9.35
2022-09-18T05:13:15.496Z,9.28
2022-09-18T05:14:46.808Z,8.90
2022-09-18T05:16:18.090Z,9.47
2022-09-18T05:17:49.504Z,9.03
2022-09-18T05:19:20.897Z,9.01
2022-09-18T05:20:52.238Z,8.10
2022-09-18T05:22:23.939Z,8.06
2022-09-18T05:23:55.375Z,7.76
2022-09-18T05:25:26.794Z,7.53
2022-09-18T05:26:58.188Z,7.28
2022-09-18T05:28:29.455Z,6.93
2022-09-18T05:30:35.671Z,6.94
2022-09-18T05:32:07.664Z,7.27
2022-09-18T05:33:38.940Z,6.78
2022-09-18T05:35:10.301Z,6.40
2022-09-18T05:36:46.707Z,6.73
2022-09-18T05:38:18.194Z,6.46
2022-09-18T05:39:50.804Z,6.37
2022-09-18T05:41:22.137Z,6.13
2022-09-18T05:42:53.719Z,6.00
2022-09-18T05:44:25.040Z,6.02
2022-09-18T05:45:56.471Z,5.41
2022-09-18T05:47:28.156Z,5.57
2022-09-18T05:48:59.594Z,5.81
2022-09-18T05:50:30.975Z,5.95
2022-09-18T05:52:02.291Z,5.59
2022-09-18T05:53:33.938Z,5.51
2022-09-18T05:55:05.677Z,6.39
2022-09-18T05:56:37.194Z,5.96
2022-09-18T05:58:08.565Z,5.21
2022-09-18T05:59:42.127Z,5.82
2022-09-18T06:01:13.405Z,6.19
2022-09-18T06:02:44.980Z,5.76
2022-09-18T06:04:16.491Z,5.54
2022-09-18T06:05:47.743Z,6.11
2022-09-18T06:07:19.109Z,5.97
2022-09-18T06:08:50.519Z,5.40
2022-09-18T06:10:21.930Z,5.18
2022-09-18T06:11:53.249Z,5.42
2022-09-18T06:13:24.829Z,6.04
2022-09-18T06:14:56.256Z,5.82
2022-09-18T06:16:27.804Z,5.79
2022-09-18T06:17:59.198Z,6.09
2022-09-18T06:19:30.438Z,6.36
2022-09-18T06:21:01.909Z,6.71
2022-09-18T06:22:33.368Z,7.08
2022-09-18T06:24:04.781Z,7.43
2022-09-18T06:25:41.068Z,7.46
2022-09-18T06:27:12.473Z,7.28
2022-09-18T06:28:43.707Z,7.55
2022-09-18T06:30:15.077Z,7.88
2022-09-18T06:31:46.338Z,7.64
2022-09-18T06:33:17.691Z,8.08
2022-09-18T06:34:49.068Z,7.76
2022-09-18T06:36:20.512Z,8.08
2022-09-18T06:37:51.986Z,8.27
2022-09-18T06:39:23.396Z,8.15
2022-09-18T06:40:54.940Z,8.38
2022-09-18T06:42:26.313Z,8.60
2022-09-18T06:43:57.605Z,8.65
2022-09-18T06:45:28.908Z,8.34
2022-09-18T06:47:00.439Z,8.23
2022-09-18T06:48:55.656Z,8.73
2022-09-18T06:50:27.073Z,8.28
2022-09-18T06:51:58.631Z,7.88
2022-09-18T06:53:29.875Z,8.42
2022-09-18T06:55:01.273Z,8.02
2022-09-18T06:56:33.161Z,8.17
2022-09-18T06:58:05.056Z,7.74
2022-09-18T06:59:36.410Z,7.89
2022-09-18T07:01:07.722Z,8.53
2022-09-18T07:02:39.055Z,8.16
2022-09-18T07:04:10.470Z,8.25
2022-09-18T07:05:42.121Z,8.23
2022-09-18T07:07:13.412Z,8.22
2022-09-18T07:08:44.833Z,8.13
2022-09-18T07:10:16.171Z,8.32
2022-09-18T07:11:52.464Z,8.56
2022-09-18T07:13:24.083Z,8.40
2022-09-18T07:14:55.493Z,8.17
2022-09-18T07:16:27.083Z,8.46
2022-09-18T07:17:58.557Z,8.23
2022-09-18T07:19:29.969Z,8.32
2022-09-18T07:21:01.430Z,8.62
2022-09-18T07:22:32.706Z,8.67
2022-09-18T07:24:04.180Z,8.10
2022-09-18T07:25:35.556Z,8.44
2022-09-18T07:27:06.780Z,8.16
2022-09-18T07:28:38.208Z,8.21
2022-09-18T07:30:09.417Z,8.58
2022-09-18T07:31:40.692Z,8.81
2022-09-18T07:33:12.028Z,8.04
2022-09-18T07:34:43.369Z,8.35
2022-09-18T07:36:14.888Z,8.57
2022-09-18T07:37:46.644Z,8.36
2022-09-18T07:39:18.118Z,8.46
2022-09-18T07:40:49.658Z,8.13
2022-09-18T07:42:21.015Z,7.89
2022-09-18T07:43:52.465Z,7.92
2022-09-18T07:45:23.883Z,7.55
2022-09-18T07:46:56.641Z,7.77
2022-09-18T07:48:28.415Z,7.26
2022-09-18T07:49:59.825Z,7.91
2022-09-18T07:51:31.310Z,7.98
2022-09-18T07:53:02.698Z,8.40
2022-09-18T07:54:39.154Z,8.13
2022-09-18T07:56:10.789Z,8.20
2022-09-18T07:57:42.179Z,8.34
2022-09-18T07:59:13.544Z,7.91
2022-09-18T08:00:45.367Z,7.78
2022-09-18T08:02:17.114Z,8.10
2022-09-18T08:03:48.955Z,8.19
2022-09-18T08:05:20.525Z,7.89
2022-09-18T08:06:51.925Z,7.72
2022-09-18T08:08:23.410Z,7.76
2022-09-18T08:09:54.634Z,7.63
2022-09-18T08:11:26.127Z,7.10
2022-09-18T08:12:57.643Z,6.77
2022-09-18T08:14:29.364Z,6.50
2022-09-18T08:16:00.743Z,5.21
2022-09-18T08:17:32.178Z,4.25
2022-09-18T08:19:03.751Z,4.28
2022-09-18T08:20:35.055Z,4.10
2022-09-18T08:22:06.715Z,3.60
2022-09-18T08:23:38.070Z,3.56
2022-09-18T08:25:09.377Z,3.66
2022-09-18T08:26:40.742Z,3.42
2022-09-18T08:28:12.211Z,3.64
2022-09-18T08:29:43.461Z,3.20
2022-09-18T08:31:14.892Z,3.19
2022-09-18T08:32:46.373Z,2.75
2022-09-18T08:34:18.341Z,2.62
2022-09-18T08:35:49.573Z,2.26
2022-09-18T08:37:20.914Z,2.23
2022-09-18T08:38:52.340Z,2.38
2022-09-18T08:40:23.822Z,2.26
2022-09-18T08:41:55.306Z,2.20
2022-09-18T08:43:26.725Z,2.03
2022-09-18T08:44:58.115Z,2.02
2022-09-18T08:46:29.594Z,2.21
2022-09-18T08:48:00.958Z,2.34
2022-09-18T08:49:32.274Z,2.26
2022-09-18T08:51:03.611Z,2.14
2022-09-18T08:52:34.896Z,1.95
2022-09-18T08:54:07.544Z,2.04
2022-09-18T08:55:38.897Z,2.07
2022-09-18T08:57:15.229Z,2.05
2022-09-18T08:58:46.842Z,2.32
2022-09-18T09:00:18.281Z,2.49
2022-09-18T09:01:49.713Z,2.83
2022-09-18T09:03:21.171Z,2.37
2022-09-18T09:04:52.568Z,2.27
2022-09-18T09:06:23.980Z,2.14
2022-09-18T09:07:55.476Z,2.08
2022-09-18T09:09:27.005Z,2.21
2022-09-18T09:10:58.309Z,2.27
2022-09-18T09:12:29.607Z,2.22
2022-09-18T09:14:00.964Z,2.17
2022-09-18T09:15:32.649Z,2.49
2022-09-18T09:17:03.936Z,2.50
2022-09-18T09:18:35.306Z,2.80
2022-09-18T09:20:06.631Z,3.19
2022-09-18T09:21:37.937Z,3.35
2022-09-18T09:23:09.387Z,3.78
2022-09-18T09:24:40.780Z,3.64
2022-09-18T09:26:12.262Z,3.97
2022-09-18T09:27:43.511Z,4.35
2022-09-18T09:29:16.002Z,4.82
2022-09-18T09:30:47.221Z,4.47
2022-09-18T09:32:18.531Z,4.09
2022-09-18T09:33:49.955Z,3.99
2022-09-18T09:35:21.573Z,4.34
2022-09-18T09:36:52.991Z,4.17
2022-09-18T09:38:24.510Z,4.49
2022-09-18T09:39:56.022Z,4.63
2022-09-18T09:41:27.342Z,4.46
2022-09-18T09:43:00.291Z,4.10
2022-09-18T09:44:31.682Z,4.04
2022-09-18T09:46:03.259Z,4.16
2022-09-18T09:47:34.839Z,4.48
2022-09-18T09:49:06.062Z,4.54
2022-09-18T09:50:37.307Z,4.66
2022-09-18T09:52:09.502Z,4.64
2022-09-18T09:53:40.998Z,4.26
2022-09-18T09:55:12.177Z,4.25
2022-09-18T09:56:43.644Z,4.04
2022-09-18T09:58:15.152Z,3.20
2022-09-18T09:59:46.673Z,3.86
2022-09-18T10:01:19.159Z,3.43
2022-09-18T10:02:50.545Z,3.04
2022-09-18T10:04:22.186Z,2.67
2022-09-18T10:05:53.897Z,2.73
2022-09-18T10:07:25.369Z,2.82
2022-09-18T10:08:56.710Z,2.88
2022-09-18T10:10:28.112Z,2.38
2022-09-18T10:11:59.580Z,1.93
2022-09-18T10:13:30.833Z,2.01
2022-09-18T10:15:02.357Z,2.12
2022-09-18T10:16:33.819Z,2.32
2022-09-18T10:18:05.434Z,2.14
2022-09-18T10:19:36.778Z,2.37
2022-09-18T10:21:08.175Z,2.53
2022-09-18T10:22:39.760Z,2.51
2022-09-18T10:24:10.986Z,2.36
2022-09-18T10:25:42.549Z,2.69
2022-09-18T10:27:13.908Z,2.00
2022-09-18T10:28:45.782Z,2.06
2022-09-18T10:30:17.566Z,1.97
2022-09-18T10:31:49.124Z,1.74
2022-09-18T10:33:20.621Z,2.21
2022-09-18T10:34:52.140Z,1.87
2022-09-18T10:36:23.714Z,1.94
2022-09-18T10:37:57.146Z,1.65
2022-09-18T10:39:34.873Z,1.59
2022-09-18T10:41:06.687Z,2.03
2022-09-18T10:42:38.228Z,1.66
2022-09-18T10:44:09.635Z,1.90
2022-09-18T10:45:41.069Z,1.70
2022-09-18T10:47:12.445Z,1.52
2022-09-18T10:48:43.697Z,1.52
2022-09-18T10:50:16.158Z,1.48
2022-09-18T10:51:48.239Z,1.58
2022-09-18T10:53:20.786Z,1.52
2022-09-18T10:54:52.065Z,1.59
2022-09-18T10:56:28.564Z,1.53
2022-09-18T10:58:00.363Z,1.58
2022-09-18T10:59:32.182Z,1.79
2022-09-18T11:01:03.734Z,1.53
2022-09-18T11:02:35.510Z,1.50
2022-09-18T11:04:06.970Z,1.51
2022-09-18T11:05:38.471Z,1.60
2022-09-18T11:07:10.020Z,1.47
2022-09-18T11:08:41.803Z,1.43
2022-09-18T11:10:13.619Z,1.72
2022-09-18T11:11:45.140Z,2.11
2022-09-18T11:13:16.698Z,1.87
2022-09-18T11:14:48.351Z,2.31
2022-09-18T11:16:19.940Z,2.86
2022-09-18T11:17:52.022Z,3.58
2022-09-18T11:19:23.914Z,3.71
2022-09-18T11:20:55.797Z,4.09
2022-09-18T11:22:27.694Z,3.77
2022-09-18T11:23:59.501Z,3.73
2022-09-18T11:25:31.752Z,3.61
2022-09-18T11:27:09.005Z,3.35
2022-09-18T11:28:40.771Z,2.98
2022-09-18T11:30:12.804Z,3.02
2022-09-18T11:31:44.724Z,2.86
2022-09-18T11:33:17.193Z,2.29
2022-09-18T11:34:48.984Z,2.33
2022-09-18T11:36:22.039Z,2.27
2022-09-18T11:37:53.730Z,2.08
2022-09-18T11:39:25.832Z,2.16
2022-09-18T11:40:57.213Z,2.37
2022-09-18T11:42:29.271Z,2.15
2022-09-18T11:44:00.895Z,1.83
2022-09-18T11:45:32.825Z,1.95
2022-09-18T11:47:09.840Z,1.72
2022-09-18T11:48:46.895Z,1.93
2022-09-18T11:50:19.129Z,1.85
2022-09-18T11:52:05.426Z,1.81
2022-09-18T11:53:43.065Z,1.96
2022-09-18T11:55:14.428Z,1.86
2022-09-18T11:56:50.897Z,1.76
2022-09-18T11:58:22.785Z,1.78
2022-09-18T11:59:54.187Z,1.50
2022-09-18T12:01:25.874Z,1.55
2022-09-18T12:03:13.749Z,1.56
2022-09-18T12:04:51.580Z,1.57
2022-09-18T12:06:23.022Z,1.55
2022-09-18T12:07:53.107Z,1.64
2022-09-18T12:09:29.466Z,1.85
2022-09-18T12:11:00.895Z,1.67
2022-09-18T12:12:32.223Z,1.49
2022-09-18T12:14:03.860Z,1.80
2022-09-18T12:15:35.334Z,1.99
2022-09-18T12:17:06.586Z,1.76
2022-09-18T12:18:37.866Z,1.67
2022-09-18T12:20:09.161Z,1.67
2022-09-18T12:21:40.454Z,1.49
2022-09-18T12:23:11.949Z,1.62
2022-09-18T12:24:48.606Z,2.28
2022-09-18T12:26:20.003Z,1.84
2022-09-18T12:27:51.325Z,1.96
2022-09-18T12:29:22.669Z,1.84
2022-09-18T12:30:54.074Z,1.79
2022-09-18T12:32:25.494Z,1.75
2022-09-18T12:34:01.826Z,1.83
2022-09-18T12:35:38.137Z,1.84
2022-09-18T12:37:15.378Z,1.66
2022-09-18T12:38:48.685Z,1.58
2022-09-18T12:40:20.244Z,1.65
2022-09-18T12:41:51.618Z,1.70
2022-09-18T12:43:22.987Z,1.72
2022-09-18T12:44:54.254Z,1.84
2022-09-18T12:46:25.588Z,1.82
2022-09-18T12:47:56.944Z,1.91
2022-09-18T12:49:33.313Z,1.86
2022-09-18T12:51:04.758Z,2.12
2022-09-18T12:53:00.294Z,2.26
2022-09-18T12:54:37.787Z,2.23
2022-09-18T12:56:14.283Z,2.30
2022-09-18T12:57:45.646Z,1.85
2022-09-18T12:59:16.883Z,1.75
2022-09-18T13:00:48.262Z,1.80
2022-09-18T13:02:19.602Z,1.84
2022-09-18T13:03:51.260Z,1.85
2022-09-18T13:05:22.628Z,1.97
2022-09-18T13:06:54.437Z,2.02
2022-09-18T13:08:25.691Z,2.03
2022-09-18T13:09:57.019Z,1.98
2022-09-18T13:11:28.342Z,1.85
2022-09-18T13:12:59.578Z,1.55
2022-09-18T13:14:31.093Z,1.41
2022-09-18T13:16:02.337Z,1.48
2022-09-18T13:17:34.498Z,1.63
2022-09-18T13:19:06.210Z,1.57
2022-09-18T13:20:42.568Z,1.50
2022-09-18T13:22:13.834Z,1.60
2022-09-18T13:23:45.130Z,1.71
2022-09-18T13:25:16.435Z,1.71
2022-09-18T13:26:47.965Z,1.56
2022-09-18T13:28:19.585Z,1.67
2022-09-18T13:29:55.929Z,2.19
2022-09-18T13:31:27.365Z,1.60
2022-09-18T13:33:03.702Z,1.45
2022-09-18T13:34:35.006Z,1.41
2022-09-18T13:36:12.476Z,1.18
2022-09-18T13:37:44.064Z,1.46
2022-09-18T13:39:15.302Z,1.38
2022-09-18T13:40:46.691Z,1.44
2022-09-18T13:42:18.057Z,1.68
2022-09-18T13:43:50.697Z,1.31
2022-09-18T13:45:22.097Z,1.12
2022-09-18T13:46:53.569Z,1.20
2022-09-18T13:48:24.925Z,0.96
2022-09-18T13:49:56.354Z,1.21
2022-09-18T13:51:31.309Z,1.16
2022-09-18T13:53:03.037Z,1.35
2022-09-18T13:54:34.756Z,1.20
2022-09-18T13:56:06.261Z,1.33
2022-09-18T13:57:37.594Z,1.26
2022-09-18T13:59:08.994Z,1.17
2022-09-18T14:00:46.721Z,1.15
2022-09-18T14:02:18.381Z,1.02
2022-09-18T14:03:49.754Z,1.20
2022-09-18T14:05:26.026Z,1.42
2022-09-18T14:07:02.227Z,1.34
2022-09-18T14:08:33.449Z,1.25
2022-09-18T14:10:09.834Z,1.22
2022-09-18T14:11:41.644Z,1.42
2022-09-18T14:13:12.972Z,1.10
2022-09-18T14:14:44.290Z,1.18
2022-09-18T14:16:15.665Z,1.22
2022-09-18T14:17:47.477Z,1.34
2022-09-18T14:19:18.844Z,1.44
2022-09-18T14:20:55.226Z,1.36
2022-09-18T14:22:26.480Z,1.72
2022-09-18T14:23:58.305Z,1.47
2022-09-18T14:25:34.933Z,1.32
2022-09-18T14:27:06.603Z,1.29
2022-09-18T14:28:37.934Z,1.65
2022-09-18T14:30:09.409Z,1.39
2022-09-18T14:31:40.788Z,1.20
2022-09-18T14:33:12.104Z,1.28
2022-09-18T14:34:43.403Z,1.19
2022-09-18T14:36:15.077Z,1.26
2022-09-18T14:37:46.358Z,1.35
2022-09-18T14:39:17.836Z,1.37
2022-09-18T14:40:49.504Z,1.28
2022-09-18T14:42:21.026Z,1.36
2022-09-18T14:43:52.598Z,1.30
2022-09-18T14:45:28.935Z,1.12
2022-09-18T14:47:05.253Z,1.72
2022-09-18T14:48:36.906Z,1.36
2022-09-18T14:50:08.321Z,1.41
2022-09-18T14:52:00.555Z,1.27
2022-09-18T14:53:36.100Z,1.52
2022-09-18T14:55:12.770Z,1.34
2022-09-18T14:56:44.240Z,1.51
2022-09-18T14:58:15.682Z,1.44
2022-09-18T14:59:47.497Z,1.14
2022-09-18T15:01:18.923Z,1.20
2022-09-18T15:02:50.527Z,1.50
2022-09-18T15:04:22.117Z,1.55
2022-09-18T15:05:53.515Z,1.40
2022-09-18T15:07:25.376Z,1.43
2022-09-18T15:08:56.816Z,1.37
2022-09-18T15:10:28.273Z,1.34
2022-09-18T15:12:02.591Z,1.33
2022-09-18T15:13:34.631Z,1.35
2022-09-18T15:15:06.216Z,1.50
2022-09-18T15:16:37.758Z,1.57
2022-09-18T15:18:10.803Z,1.66
2022-09-18T15:19:42.150Z,1.59
2022-09-18T15:21:13.648Z,1.49
2022-09-18T15:22:44.992Z,1.49
2022-09-18T15:24:16.860Z,1.40
2022-09-18T15:25:48.616Z,1.46
2022-09-18T15:27:20.023Z,1.55
2022-09-18T15:28:51.539Z,1.52
2022-09-18T15:30:23.058Z,2.01
2022-09-18T15:31:54.728Z,1.68
2022-09-18T15:33:26.262Z,1.62
2022-09-18T15:34:57.893Z,1.60
2022-09-18T15:36:29.440Z,1.54
2022-09-18T15:38:02.837Z,1.78
2022-09-18T15:39:34.908Z,2.31
2022-09-18T15:41:06.676Z,2.96
2022-09-18T15:42:38.244Z,3.31
2022-09-18T15:44:09.708Z,2.70
2022-09-18T15:45:41.178Z,2.77
2022-09-18T15:47:12.507Z,2.96
2022-09-18T15:48:44.049Z,2.82
2022-09-18T15:50:15.567Z,2.46
2022-09-18T15:51:46.874Z,2.61
2022-09-18T15:53:18.478Z,1.97
2022-09-18T15:54:54.886Z,2.65
2022-09-18T15:56:26.308Z,3.45
2022-09-18T15:57:58.015Z,2.54
2022-09-18T15:59:42.178Z,2.09
2022-09-18T16:01:13.835Z,1.51
2022-09-18T16:02:45.388Z,1.82
2022-09-18T16:04:16.890Z,2.07
2022-09-18T16:05:48.301Z,1.84
2022-09-18T16:07:24.609Z,1.85
2022-09-18T16:08:56.088Z,1.73
2022-09-18T16:10:28.268Z,1.83
2022-09-18T16:11:59.920Z,1.78
2022-09-18T16:13:31.523Z,1.77
2022-09-18T16:15:03.176Z,2.05
2022-09-18T16:16:35.053Z,1.68
2022-09-18T16:18:06.672Z,1.57
2022-09-18T16:19:39.102Z,1.36
2022-09-18T16:21:10.682Z,1.62
2022-09-18T16:22:42.036Z,1.64
2022-09-18T16:24:14.655Z,1.93
2022-09-18T16:25:46.246Z,2.04
2022-09-18T16:27:17.852Z,2.50
2022-09-18T16:28:59.303Z,1.97
2022-09-18T16:30:32.688Z,1.83
2022-09-18T16:32:09.133Z,1.64
2022-09-18T16:34:06.680Z,1.65
2022-09-18T16:35:38.366Z,1.82
2022-09-18T16:37:10.091Z,1.74
2022-09-18T16:38:41.432Z,1.59
2022-09-18T16:40:13.093Z,1.44
2022-09-18T16:41:49.666Z,1.50
2022-09-18T16:43:46.372Z,1.66
2022-09-18T16:45:32.874Z,1.59
2022-09-18T16:47:04.362Z,1.69
2022-09-18T16:48:52.449Z,1.96
2022-09-18T16:50:23.955Z,1.57
2022-09-18T16:51:55.421Z,1.79
2022-09-18T16:53:41.773Z,1.42
2022-09-18T16:55:18.287Z,1.56
2022-09-18T16:56:53.538Z,1.44
2022-09-18T16:58:44.269Z,1.63
2022-09-18T17:00:20.913Z,2.58
2022-09-18T17:02:02.955Z,3.80
2022-09-18T17:03:46.268Z,5.12
2022-09-18T17:05:26.669Z,3.54
2022-09-18T17:06:58.111Z,2.30
2022-09-18T17:08:34.772Z,1.80
2022-09-18T17:10:06.299Z,1.91
2022-09-18T17:11:37.795Z,1.73
2022-09-18T17:13:09.244Z,1.72
2022-09-18T17:14:40.552Z,2.77
2022-09-18T17:16:19.175Z,3.37
2022-09-18T17:17:57.568Z,3.58
2022-09-18T17:19:29.123Z,4.88
2022-09-18T17:21:13.982Z,3.78
2022-09-18T17:22:45.541Z,2.56
2022-09-18T17:24:39.218Z,2.61
2022-09-18T17:26:26.502Z,2.76
2022-09-18T17:28:28.697Z,2.61
2022-09-18T17:30:00.101Z,2.50
2022-09-18T17:31:31.734Z,3.07
2022-09-18T17:33:03.166Z,2.15
2022-09-18T17:34:55.458Z,2.37
2022-09-18T17:36:27.975Z,2.33
2022-09-18T17:38:06.116Z,2.01
2022-09-18T17:39:37.571Z,2.23
2022-09-18T17:41:10.154Z,1.86
2022-09-18T17:42:41.455Z,2.06
2022-09-18T17:44:12.718Z,1.94
2022-09-18T17:45:44.429Z,1.91
2022-09-18T17:47:15.717Z,1.74
2022-09-18T17:48:52.028Z,1.71
2022-09-18T17:50:28.624Z,1.74
2022-09-18T17:52:15.306Z,1.97
2022-09-18T17:54:00.505Z,2.32
2022-09-18T17:55:31.863Z,2.35
2022-09-18T17:57:03.221Z,3.59
2022-09-18T17:58:34.440Z,4.43
2022-09-18T18:00:05.686Z,2.70
2022-09-18T18:01:36.993Z,2.17
2022-09-18T18:03:42.510Z,2.18
2022-09-18T18:05:28.433Z,2.12
2022-09-18T18:07:00.339Z,1.83
2022-09-18T18:08:59.180Z,2.02
2022-09-18T18:10:35.603Z,2.02
2022-09-18T18:12:27.096Z,2.09
2022-09-18T18:13:58.476Z,1.94
2022-09-18T18:15:30.326Z,2.09
2022-09-18T18:17:25.804Z,2.02
2022-09-18T18:19:07.668Z,2.12
2022-09-18T18:20:39.063Z,1.79
2022-09-18T18:22:15.646Z,1.65
2022-09-18T18:23:47.256Z,1.80
2022-09-18T18:25:18.803Z,1.76
2022-09-18T18:27:00.207Z,1.61
2022-09-18T18:28:46.510Z,1.74
2022-09-18T18:30:19.209Z,1.71
2022-09-18T18:31:51.275Z,1.77
2022-09-18T18:33:22.591Z,1.85
2022-09-18T18:34:53.922Z,1.92
2022-09-18T18:36:47.088Z,2.12
2022-09-18T18:38:23.490Z,3.46
2022-09-18T18:40:07.564Z,6.67
2022-09-18T18:41:39.525Z,9.76
2022-09-18T18:43:10.961Z,11.74
2022-09-18T18:44:43.461Z,5.51
2022-09-18T18:46:15.104Z,3.68
2022-09-18T18:47:46.615Z,3.71
2022-09-18T18:49:17.917Z,3.33
2022-09-18T18:50:49.559Z,2.47
2022-09-18T18:52:22.060Z,2.15
2022-09-18T18:53:58.532Z,2.19
2022-09-18T18:55:34.942Z,2.11
2022-09-18T18:57:11.311Z,2.59
2022-09-18T18:58:44.303Z,2.78
2022-09-18T19:00:15.685Z,2.62
2022-09-18T19:01:47.383Z,2.55
2022-09-18T19:03:28.916Z,2.64
2022-09-18T19:05:00.543Z,2.57
2022-09-18T19:06:31.975Z,2.53
2022-09-18T19:08:13.404Z,3.00
2022-09-18T19:09:44.954Z,2.77
2022-09-18T19:11:29.620Z,2.95
2022-09-18T19:13:01.289Z,3.49
2022-09-18T19:14:33.128Z,3.51
2022-09-18T19:16:05.909Z,3.32
2022-09-18T19:17:52.396Z,3.34
2022-09-18T19:19:34.439Z,2.81
2022-09-18T19:21:15.999Z,2.54
2022-09-18T19:22:53.078Z,2.45
2022-09-18T19:24:46.469Z,2.34
2022-09-18T19:26:23.231Z,2.51
2022-09-18T19:28:01.827Z,2.27
2022-09-18T19:29:33.317Z,2.40
2022-09-18T19:31:05.187Z,2.35
2022-09-18T19:32:36.935Z,2.72
2022-09-18T19:34:08.215Z,2.94
2022-09-18T19:35:39.655Z,2.80
2022-09-18T19:37:12.050Z,3.16
2022-09-18T19:38:45.600Z,3.14
2022-09-18T19:40:21.923Z,3.12
2022-09-18T19:41:53.724Z,2.69
2022-09-18T19:43:25.346Z,3.19
2022-09-18T19:44:56.844Z,3.23
2022-09-18T19:46:28.505Z,2.78
2022-09-18T19:47:59.958Z,2.77
2022-09-18T19:49:31.581Z,2.88
2022-09-18T19:51:03.600Z,2.85
2022-09-18T19:52:35.071Z,2.92
2022-09-18T19:54:06.527Z,3.22
2022-09-18T19:55:38.527Z,3.25
2022-09-18T19:57:12.994Z,3.46
2022-09-18T19:58:44.907Z,3.34
2022-09-18T20:00:21.369Z,3.01
2022-09-18T20:01:52.987Z,3.23
2022-09-18T20:03:24.483Z,3.15
2022-09-18T20:04:56.061Z,2.72
2022-09-18T20:06:27.453Z,2.79
2022-09-18T20:07:59.135Z,3.29
2022-09-18T20:09:30.670Z,3.43
2022-09-18T20:11:12.131Z,2.97
2022-09-18T20:12:43.539Z,3.08
2022-09-18T20:14:15.223Z,3.63
2022-09-18T20:15:46.800Z,3.12
2022-09-18T20:17:18.278Z,3.46
2022-09-18T20:18:49.858Z,3.66
2022-09-18T20:20:22.436Z,2.91
2022-09-18T20:21:53.937Z,3.00
2022-09-18T20:23:30.523Z,3.17
2022-09-18T20:25:02.059Z,3.15
2022-09-18T20:26:33.381Z,3.42
2022-09-18T20:28:04.887Z,3.29
2022-09-18T20:29:36.741Z,3.06
2022-09-18T20:31:08.504Z,3.23
2022-09-18T20:32:39.780Z,3.42
2022-09-18T20:34:11.186Z,4.94
2022-09-18T20:35:42.961Z,5.93